Time;durP1;ratioP1;P1;durP2;ratioP2;P2;SDS_P1;SDS_P2;PMS_P1;PMS_P2;Temp;Humidity;BMP_temperature;BMP_pressure;BME280_temperature;BME280_humidity;BME280_pressure;Samples;Min_cycle;Max_cycle;Signal;HPM_P1;HPM_P2
2022/11/26 00:02:25;;;;;;;12.98;2.90;;;6.40;99.90;;;;;;20571553;28;20102;-43
2022/11/26 00:12:30;;;;;;;7.30;2.80;;;6.30;99.90;;;;;;20561264;28;20092;-44
2022/11/26 00:22:38;;;;;;;5.82;2.28;;;6.20;99.90;;;;;;20572173;28;20074;-43
2022/11/26 00:32:39;;;;;;;3.78;1.83;;;6.20;99.90;;;;;;20564127;28;21799;-44
2022/11/26 00:42:40;;;;;;;6.32;3.10;;;6.20;99.90;;;;;;20631800;28;20056;-43
2022/11/26 00:52:41;;;;;;;5.25;2.00;;;6.20;99.90;;;;;;20623911;28;20147;-42
2022/11/26 01:02:42;;;;;;;5.95;2.00;;;6.20;99.90;;;;;;20626712;28;20081;-43
2022/11/26 01:12:44;;;;;;;11.35;2.28;;;6.30;99.90;;;;;;20635691;28;20042;-43
2022/11/26 01:22:46;;;;;;;3.78;1.83;;;6.20;99.90;;;;;;20618196;28;20148;-43
2022/11/26 01:32:48;;;;;;;6.70;2.10;;;6.20;99.90;;;;;;20628824;28;20057;-43
2022/11/26 01:42:52;;;;;;;8.50;3.25;;;6.20;99.90;;;;;;20633392;28;20080;-43
2022/11/26 01:52:57;;;;;;;5.65;2.75;;;6.10;99.90;;;;;;20641962;28;20321;-43
2022/11/26 02:02:59;;;;;;;7.60;2.75;;;6.20;99.90;;;;;;20641429;28;20129;-43
2022/11/26 02:13:00;;;;;;;6.10;2.10;;;6.20;99.90;;;;;;20638446;28;20053;-42
2022/11/26 02:23:27;;;;;;;6.45;2.30;;;6.10;99.90;;;;;;20598517;28;20070;-43
2022/11/26 02:33:31;;;;;;;6.75;2.25;;;6.10;99.90;;;;;;20646460;28;20046;-43
2022/11/26 02:43:35;;;;;;;5.20;2.60;;;5.90;99.90;;;;;;20658879;28;20050;-43
2022/11/26 02:53:37;;;;;;;7.70;3.78;;;5.90;99.90;;;;;;20646605;28;20034;-43
2022/11/26 03:03:45;;;;;;;10.00;4.28;;;5.80;99.90;;;;;;20636588;28;21838;-43
2022/11/26 03:13:48;;;;;;;10.32;3.88;;;5.90;99.90;;;;;;20635547;28;20910;-43
2022/11/26 03:23:49;;;;;;;11.00;3.90;;;5.90;99.90;;;;;;20608114;28;20224;-42
2022/11/26 03:33:50;;;;;;;9.48;4.43;;;6.00;99.90;;;;;;20632460;28;20109;-42
2022/11/26 03:43:51;;;;;;;6.00;3.17;;;6.20;99.90;;;;;;20638525;28;20460;-43
2022/11/26 03:53:51;;;;;;;6.50;4.03;;;6.30;99.90;;;;;;20634223;28;20152;-43
2022/11/26 04:03:53;;;;;;;11.18;4.20;;;6.30;99.90;;;;;;20627516;28;20046;-43
2022/11/26 04:13:53;;;;;;;10.10;4.93;;;6.30;99.90;;;;;;20642084;28;20039;-42
2022/11/26 04:23:54;;;;;;;9.00;3.67;;;6.40;99.90;;;;;;20634603;28;20046;-43
2022/11/26 04:33:55;;;;;;;12.13;4.07;;;6.30;99.90;;;;;;20648594;28;20038;-43
2022/11/26 04:43:56;;;;;;;16.70;4.53;;;6.30;99.90;;;;;;20499094;28;21585;-43
2022/11/26 04:53:58;;;;;;;20.63;4.90;;;6.30;99.90;;;;;;20485595;28;20051;-43
2022/11/26 05:03:59;;;;;;;17.98;5.03;;;6.20;99.90;;;;;;20461052;28;20074;-42
2022/11/26 05:14:00;;;;;;;17.55;6.70;;;6.20;99.90;;;;;;20485360;28;20050;-43
2022/11/26 05:24:01;;;;;;;13.32;5.43;;;6.10;99.90;;;;;;20480018;28;20051;-42
2022/11/26 05:34:02;;;;;;;9.25;4.72;;;6.10;99.90;;;;;;20487841;28;20129;-43
2022/11/26 05:44:04;;;;;;;11.98;6.05;;;6.00;99.90;;;;;;20485479;28;20630;-43
2022/11/26 05:54:06;;;;;;;13.05;5.90;;;5.90;99.90;;;;;;20479147;28;20136;-43
2022/11/26 06:04:07;;;;;;;12.45;6.32;;;6.00;99.90;;;;;;20471594;28;20087;-43
2022/11/26 06:14:09;;;;;;;23.30;6.05;;;6.00;99.90;;;;;;20498824;28;20050;-42
2022/11/26 06:24:10;;;;;;;12.35;6.03;;;6.00;99.90;;;;;;20500874;28;20090;-42
2022/11/26 06:34:11;;;;;;;25.67;7.80;;;5.90;99.90;;;;;;20489660;28;20079;-43
2022/11/26 06:44:12;;;;;;;14.27;7.10;;;5.90;99.90;;;;;;20435059;28;20051;-43
2022/11/26 06:54:13;;;;;;;9.65;5.43;;;5.80;99.90;;;;;;20424101;28;20044;-43
2022/11/26 07:04:14;;;;;;;14.50;6.53;;;5.90;99.90;;;;;;20429977;28;20196;-43
2022/11/26 07:14:15;;;;;;;11.45;6.47;;;5.80;99.90;;;;;;20430807;28;20050;-40
2022/11/26 07:24:16;;;;;;;14.73;7.88;;;5.90;99.90;;;;;;20425912;28;20043;-43
2022/11/26 07:34:17;;;;;;;14.10;6.32;;;5.90;99.90;;;;;;20439341;28;20120;-43
2022/11/26 07:44:18;;;;;;;12.95;5.13;;;6.00;99.90;;;;;;20495496;28;20889;-42
2022/11/26 07:54:19;;;;;;;13.02;6.63;;;6.10;99.90;;;;;;20491358;28;20151;-42
2022/11/26 08:04:20;;;;;;;17.20;6.32;;;6.10;99.90;;;;;;20463902;28;20030;-43
2022/11/26 08:14:21;;;;;;;13.40;4.90;;;6.20;99.90;;;;;;20480823;28;20333;-43
2022/11/26 08:24:22;;;;;;;12.75;6.30;;;6.40;99.90;;;;;;20408337;28;20057;-42
2022/11/26 08:34:23;;;;;;;10.60;4.90;;;6.40;99.90;;;;;;20464268;28;20153;-43
2022/11/26 08:44:24;;;;;;;11.05;5.55;;;6.60;99.90;;;;;;20468486;28;20043;-42
2022/11/26 08:54:25;;;;;;;12.68;5.88;;;6.70;99.90;;;;;;20458215;28;20046;-42
2022/11/26 09:04:26;;;;;;;16.27;5.60;;;6.80;99.90;;;;;;20457609;28;20785;-42
2022/11/26 09:14:33;;;;;;;11.30;5.47;;;7.00;99.90;;;;;;20478012;28;20058;-43
2022/11/26 09:24:35;;;;;;;6.47;3.83;;;7.10;99.90;;;;;;20479009;28;20126;-43
2022/11/26 09:34:36;;;;;;;10.43;4.20;;;7.20;99.90;;;;;;20474903;28;20629;-44
2022/11/26 09:44:57;;;;;;;10.38;4.45;;;7.40;99.90;;;;;;20465391;28;20269;-43
2022/11/26 09:55:20;;;;;;;8.68;4.45;;;7.50;99.90;;;;;;20447698;28;20104;-44
2022/11/26 10:05:30;;;;;;;9.07;4.90;;;7.50;99.90;;;;;;20415300;28;20200;-43
2022/11/26 10:15:41;;;;;;;17.85;6.65;;;7.70;99.90;;;;;;20454757;28;20186;-44
2022/11/26 10:25:48;;;;;;;11.25;4.28;;;7.90;99.90;;;;;;20464055;28;20859;-43
2022/11/26 10:35:49;;;;;;;6.73;3.40;;;8.20;99.90;;;;;;20472841;28;20491;-43
2022/11/26 10:45:56;;;;;;;22.25;4.57;;;8.30;99.90;;;;;;20466343;28;20055;-44
2022/11/26 10:56:00;;;;;;;12.00;5.03;;;8.60;99.90;;;;;;20468992;28;20079;-44
2022/11/26 11:06:19;;;;;;;12.95;4.90;;;8.70;99.90;;;;;;20475016;28;20491;-44
2022/11/26 11:16:20;;;;;;;6.13;3.35;;;9.20;99.90;;;;;;20485816;28;20520;-44
2022/11/26 11:26:25;;;;;;;13.23;6.50;;;10.00;99.90;;;;;;20468509;28;20528;-44
2022/11/26 11:36:27;;;;;;;6.88;3.47;;;10.20;99.90;;;;;;20462474;28;20067;-43
2022/11/26 11:47:13;;;;;;;6.28;3.83;;;10.00;99.90;;;;;;20471132;28;20381;-45
2022/11/26 11:57:23;;;;;;;10.43;4.63;;;10.20;99.90;;;;;;20470743;28;20919;-43
2022/11/26 12:07:33;;;;;;;43.25;4.85;;;10.60;99.90;;;;;;20466338;28;20051;-43
2022/11/26 12:17:38;;;;;;;6.05;2.22;;;10.60;99.90;;;;;;20485627;28;20045;-43
2022/11/26 12:27:45;;;;;;;8.52;3.55;;;10.20;99.90;;;;;;20485651;28;20912;-44
2022/11/26 12:37:50;;;;;;;5.17;2.53;;;10.10;99.90;;;;;;20488300;28;20727;-44
2022/11/26 12:47:58;;;;;;;4.15;2.35;;;10.00;99.90;;;;;;20485602;28;20051;-44
2022/11/26 12:58:13;;;;;;;9.40;3.20;;;10.00;99.90;;;;;;20483436;28;20585;-43
2022/11/26 13:08:38;;;;;;;5.70;2.75;;;10.00;99.90;;;;;;20478983;28;20475;-44
2022/11/26 13:18:48;;;;;;;3.78;2.40;;;10.80;99.90;;;;;;20458561;28;20765;-44
2022/11/26 13:29:22;;;;;;;4.55;1.85;;;11.20;99.90;;;;;;20478708;28;20885;-44
2022/11/26 13:39:55;;;;;;;8.70;3.38;;;10.80;99.90;;;;;;20473890;28;20130;-44
2022/11/26 13:50:11;;;;;;;7.32;2.92;;;10.60;99.90;;;;;;20472099;28;20059;-44
2022/11/26 14:00:32;;;;;;;4.50;1.77;;;10.70;99.90;;;;;;20462597;28;20051;-44
2022/11/26 14:10:33;;;;;;;5.53;2.97;;;10.70;99.90;;;;;;20464679;28;20233;-43
2022/11/26 14:20:56;;;;;;;6.50;3.83;;;10.60;99.90;;;;;;20467878;28;20044;-44
2022/11/26 14:31:27;;;;;;;6.07;2.78;;;10.40;99.90;;;;;;20467634;28;21930;-44
2022/11/26 14:41:33;;;;;;;4.60;2.22;;;10.30;99.90;;;;;;20451174;28;20561;-44
2022/11/26 14:51:35;;;;;;;8.43;2.75;;;10.20;99.90;;;;;;20464572;28;20051;-44
2022/11/26 15:01:41;;;;;;;6.60;3.75;;;10.30;99.90;;;;;;20468562;28;20153;-44
2022/11/26 15:11:49;;;;;;;5.93;3.20;;;10.30;99.90;;;;;;20463713;28;20275;-43
2022/11/26 15:21:50;;;;;;;;;;;10.30;99.90;;;;;;20468246;28;20126;-44
2022/11/26 15:31:51;;;;;;;5.40;2.25;;;10.20;99.90;;;;;;20475019;28;20065;-44
2022/11/26 15:41:56;;;;;;;6.70;2.13;;;10.00;99.90;;;;;;20476338;28;20051;-44
2022/11/26 15:52:07;;;;;;;13.85;4.38;;;9.90;99.90;;;;;;20470984;28;22454;-43
2022/11/26 16:02:18;;;;;;;10.23;2.30;;;9.90;99.90;;;;;;20469206;28;20047;-44
2022/11/26 16:12:29;;;;;;;5.25;2.40;;;9.70;99.90;;;;;;20472675;28;20243;-44
2022/11/26 16:22:32;;;;;;;4.38;1.80;;;9.70;99.90;;;;;;20466291;28;20086;-44
2022/11/26 16:32:33;;;;;;;5.25;2.50;;;9.70;99.90;;;;;;20468638;28;20117;-44
2022/11/26 16:42:34;;;;;;;6.75;3.17;;;9.60;99.90;;;;;;20467232;28;20047;-44
2022/11/26 16:52:37;;;;;;;7.05;2.85;;;9.50;99.90;;;;;;20466613;28;20173;-44
2022/11/26 17:02:38;;;;;;;4.70;2.63;;;9.60;99.90;;;;;;20472534;28;20227;-44
2022/11/26 17:12:39;;;;;;;5.32;2.95;;;9.50;99.90;;;;;;20468859;28;20058;-43
2022/11/26 17:22:40;;;;;;;8.77;2.75;;;9.50;99.90;;;;;;20474790;28;20448;-43
2022/11/26 17:32:41;;;;;;;4.07;1.90;;;9.60;99.90;;;;;;20462065;28;20470;-43
2022/11/26 17:42:42;;;;;;;4.63;1.55;;;9.50;99.90;;;;;;20473861;28;21129;-43
2022/11/26 17:52:43;;;;;;;5.70;2.88;;;9.50;99.90;;;;;;20480432;28;20055;-44
2022/11/26 18:02:45;;;;;;;8.02;2.22;;;9.30;99.90;;;;;;20478329;28;20090;-44
2022/11/26 18:12:46;;;;;;;5.65;2.35;;;9.30;99.90;;;;;;20500730;28;20117;-44
2022/11/26 18:22:55;;;;;;;5.93;2.80;;;9.20;99.90;;;;;;20493561;28;20050;-44
2022/11/26 18:32:56;;;;;;;6.68;3.28;;;9.10;99.90;;;;;;20492228;28;20058;-44
2022/11/26 18:42:57;;;;;;;6.10;2.47;;;9.00;99.90;;;;;;20504928;28;20067;-44
2022/11/26 18:52:58;;;;;;;5.20;2.22;;;8.80;99.90;;;;;;20481309;28;20043;-44
2022/11/26 19:03:00;;;;;;;11.13;2.83;;;8.70;99.90;;;;;;20488807;28;20035;-44
2022/11/26 19:13:01;;;;;;;9.88;3.47;;;8.60;99.90;;;;;;20490105;28;20055;-44
2022/11/26 19:23:02;;;;;;;6.43;2.75;;;8.50;99.90;;;;;;20492315;28;20063;-44
2022/11/26 19:33:03;;;;;;;7.95;2.92;;;8.50;99.90;;;;;;20479363;28;20075;-44
2022/11/26 19:43:04;;;;;;;6.63;3.15;;;8.40;99.90;;;;;;20493184;28;20035;-43
2022/11/26 19:53:05;;;;;;;10.65;4.40;;;8.30;99.90;;;;;;20500154;28;20046;-44
2022/11/26 20:03:06;;;;;;;6.00;3.38;;;8.20;99.90;;;;;;20485149;28;20043;-44
2022/11/26 20:13:09;;;;;;;8.15;3.97;;;8.20;99.90;;;;;;20473438;28;20070;-44
2022/11/26 20:23:10;;;;;;;7.63;3.30;;;8.10;99.90;;;;;;20487275;28;20058;-44
2022/11/26 20:33:11;;;;;;;8.88;3.10;;;8.00;99.90;;;;;;20479682;28;20054;-44
2022/11/26 20:43:12;;;;;;;6.32;2.35;;;7.90;99.90;;;;;;20470882;28;20507;-44
2022/11/26 20:53:13;;;;;;;4.85;2.20;;;7.90;99.90;;;;;;20467556;28;20121;-44
2022/11/26 21:03:14;;;;;;;3.83;1.88;;;7.90;99.90;;;;;;20486133;28;20043;-43
2022/11/26 21:13:17;;;;;;;6.47;3.38;;;7.80;99.90;;;;;;20478805;28;20044;-43
2022/11/26 21:23:18;;;;;;;9.13;2.53;;;7.70;99.90;;;;;;20462882;28;20511;-43
2022/11/26 21:33:19;;;;;;;6.85;2.67;;;7.60;99.90;;;;;;20482374;28;20580;-40
2022/11/26 21:43:20;;;;;;;8.65;2.65;;;7.50;99.90;;;;;;20477824;28;20530;-40
2022/11/26 21:53:21;;;;;;;5.25;3.20;;;7.50;99.90;;;;;;20480999;28;20051;-40
2022/11/26 22:03:23;;;;;;;8.73;3.55;;;7.50;99.90;;;;;;20479189;28;20146;-40
2022/11/26 22:13:24;;;;;;;4.68;2.47;;;7.50;99.90;;;;;;20482884;28;20058;-41
2022/11/26 22:23:25;;;;;;;4.05;1.67;;;7.50;99.90;;;;;;20481211;28;20085;-40
2022/11/26 22:33:26;;;;;;;6.75;2.53;;;7.40;99.90;;;;;;20471188;28;20131;-40
2022/11/26 22:43:28;;;;;;;4.82;2.10;;;7.40;99.90;;;;;;20472665;28;20502;-41
2022/11/26 22:53:32;;;;;;;3.63;2.00;;;7.20;99.90;;;;;;20469021;28;20039;-40
2022/11/26 23:03:35;;;;;;;6.10;3.05;;;7.30;99.90;;;;;;20472655;28;20062;-40
2022/11/26 23:13:38;;;;;;;11.10;2.47;;;7.20;99.90;;;;;;20463075;28;20139;-40
2022/11/26 23:23:40;;;;;;;5.88;2.13;;;7.20;99.90;;;;;;20465571;28;20924;-40
2022/11/26 23:33:41;;;;;;;4.88;2.53;;;7.10;99.90;;;;;;20474702;28;20047;-40
2022/11/26 23:43:43;;;;;;;3.85;1.42;;;7.20;99.90;;;;;;20478491;28;20875;-40
2022/11/26 23:53:45;;;;;;;8.38;1.92;;;7.20;99.90;;;;;;20471321;28;20043;-40
